Time;durP1;ratioP1;P1;durP2;ratioP2;P2;SDS_P1;SDS_P2;PMS_P1;PMS_P2;Temp;Humidity;BMP_temperature;BMP_pressure;BME280_temperature;BME280_humidity;BME280_pressure;Samples;Min_cycle;Max_cycle;Signal;HPM_P1;HPM_P2
2023/07/17 00:00:49;;;;;;;5.30;5.00;;;;;;;17.44;100.00;97109.34;5073737;28;20203;-71
2023/07/17 00:03:16;;;;;;;5.03;4.73;;;;;;;17.34;100.00;97099.19;5077456;28;20201;-70
2023/07/17 00:05:44;;;;;;;5.10;4.70;;;;;;;17.35;100.00;97101.66;5076534;28;20831;-68
2023/07/17 00:08:13;;;;;;;5.00;4.53;;;;;;;17.40;100.00;97105.50;5079185;28;20847;-64
2023/07/17 00:10:41;;;;;;;5.37;4.50;;;;;;;17.40;100.00;97103.63;5074771;28;20186;-69
2023/07/17 00:13:08;;;;;;;4.70;4.40;;;;;;;17.46;100.00;97101.91;5076990;28;20249;-67
2023/07/17 00:15:36;;;;;;;4.97;4.50;;;;;;;17.42;100.00;97093.50;5074396;28;20675;-66
2023/07/17 00:18:04;;;;;;;4.40;4.10;;;;;;;17.47;100.00;97092.81;5077508;28;20203;-67
2023/07/17 00:20:32;;;;;;;4.77;4.27;;;;;;;17.50;100.00;97095.03;5073059;28;20305;-67
2023/07/17 00:22:59;;;;;;;5.67;5.17;;;;;;;17.54;100.00;97098.88;5081953;28;20321;-69
2023/07/17 00:25:29;;;;;;;5.00;4.80;;;;;;;17.54;100.00;97092.72;5074109;28;20597;-66
2023/07/17 00:27:57;;;;;;;5.47;5.07;;;;;;;17.60;100.00;97106.00;5076434;28;20230;-65
2023/07/17 00:30:24;;;;;;;5.30;5.00;;;;;;;17.66;100.00;97101.59;5074132;28;20842;-63
2023/07/17 00:32:52;;;;;;;6.20;5.67;;;;;;;17.69;100.00;97103.00;5079631;28;20226;-69
2023/07/17 00:35:19;;;;;;;5.13;4.83;;;;;;;17.74;100.00;97106.59;5076345;28;20226;-66
2023/07/17 00:37:47;;;;;;;5.70;5.23;;;;;;;17.78;100.00;97109.63;5074423;28;20285;-66
2023/07/17 00:40:15;;;;;;;5.10;4.70;;;;;;;17.80;100.00;97110.22;5075966;28;20288;-67
2023/07/17 00:42:44;;;;;;;5.37;4.97;;;;;;;17.79;100.00;97109.38;5076878;28;20310;-68
2023/07/17 00:45:12;;;;;;;5.87;5.47;;;;;;;17.78;100.00;97096.22;5073335;28;20899;-67
2023/07/17 00:47:39;;;;;;;5.53;5.03;;;;;;;17.81;100.00;97103.00;5078489;28;20301;-67
2023/07/17 00:50:08;;;;;;;6.53;5.77;;;;;;;17.72;100.00;97097.16;5073241;28;20290;-66
2023/07/17 00:52:36;;;;;;;5.70;5.30;;;;;;;17.78;100.00;97106.94;5073368;28;20716;-68
2023/07/17 00:55:04;;;;;;;5.60;5.20;;;;;;;17.83;100.00;97115.09;5078077;28;20698;-67
2023/07/17 00:57:33;;;;;;;5.23;4.83;;;;;;;17.82;100.00;97104.63;5074125;28;20723;-65
2023/07/17 01:00:05;;;;;;;5.17;4.80;;;;;;;17.77;100.00;97111.47;5075959;28;20202;-64
2023/07/17 01:02:33;;;;;;;5.20;4.90;;;;;;;17.78;100.00;97115.78;5076184;28;20197;-64
2023/07/17 01:05:01;;;;;;;5.77;5.30;;;;;;;17.78;100.00;97120.34;5078698;28;20254;-65
2023/07/17 01:07:28;;;;;;;4.90;4.50;;;;;;;17.78;100.00;97123.03;5076604;28;20951;-64
2023/07/17 01:09:56;;;;;;;6.73;5.60;;;;;;;17.74;100.00;97119.19;5082898;28;20646;-67
2023/07/17 01:12:24;;;;;;;7.00;5.23;;;;;;;17.74;100.00;97124.53;5079877;28;20312;-67
2023/07/17 01:14:51;;;;;;;5.67;5.27;;;;;;;17.60;100.00;97121.25;5080298;28;20300;-63
2023/07/17 01:17:20;;;;;;;5.43;5.10;;;;;;;17.59;100.00;97125.00;5078229;28;20298;-69
2023/07/17 01:19:48;;;;;;;5.50;5.10;;;;;;;17.49;100.00;97130.91;5073703;28;20688;-66
2023/07/17 01:22:21;;;;;;;5.23;4.93;;;;;;;17.48;100.00;97130.09;5080531;28;20267;-65
2023/07/17 01:24:49;;;;;;;5.10;4.80;;;;;;;17.50;100.00;97129.84;5081778;28;20278;-64
2023/07/17 01:27:18;;;;;;;5.10;4.80;;;;;;;17.52;100.00;97130.44;5080696;28;20964;-66
2023/07/17 01:29:45;;;;;;;6.10;5.50;;;;;;;17.55;100.00;97129.19;5075970;28;20244;-65
2023/07/17 01:32:15;;;;;;;5.40;5.00;;;;;;;17.50;100.00;97133.38;5077741;28;21208;-67
2023/07/17 01:34:42;;;;;;;5.10;4.70;;;;;;;17.58;100.00;97134.06;5078846;28;20206;-67
2023/07/17 01:37:10;;;;;;;5.10;4.80;;;;;;;17.44;100.00;97112.03;5079675;28;20938;-64
2023/07/17 01:39:38;;;;;;;4.80;4.40;;;;;;;17.52;100.00;97124.28;5084296;28;20206;-66
2023/07/17 01:42:08;;;;;;;4.50;4.10;;;;;;;17.55;100.00;97118.47;5080211;28;20190;-65
2023/07/17 01:44:35;;;;;;;5.40;4.90;;;;;;;17.59;100.00;97133.03;5081312;28;20657;-64
2023/07/17 01:47:03;;;;;;;6.73;5.53;;;;;;;17.55;100.00;97124.63;5080216;28;20217;-66
2023/07/17 01:49:32;;;;;;;4.83;4.43;;;;;;;17.58;100.00;97124.16;5078733;28;20202;-68
2023/07/17 01:52:00;;;;;;;4.97;4.57;;;;;;;17.52;100.00;97135.00;5080616;28;20202;-65
2023/07/17 01:54:27;;;;;;;5.30;4.90;;;;;;;17.45;100.00;97135.09;5079429;28;20864;-65
2023/07/17 01:56:54;;;;;;;5.60;4.93;;;;;;;17.51;100.00;97134.16;5081685;28;20230;-67
2023/07/17 01:59:23;;;;;;;5.77;4.90;;;;;;;17.49;100.00;97133.59;5070005;28;20258;-65
2023/07/17 02:01:51;;;;;;;5.57;5.17;;;;;;;17.50;100.00;97137.88;5079494;28;20301;-64
2023/07/17 02:04:18;;;;;;;6.37;5.13;;;;;;;17.51;100.00;97139.53;5076662;28;20199;-63
2023/07/17 02:06:46;;;;;;;5.03;4.63;;;;;;;17.53;100.00;97142.78;5082598;28;20256;-64
2023/07/17 02:09:14;;;;;;;4.83;4.57;;;;;;;17.50;100.00;97129.84;5082421;28;20231;-67
2023/07/17 02:11:41;;;;;;;5.27;4.97;;;;;;;17.48;100.00;97121.22;5079933;28;20309;-69
2023/07/17 02:14:09;;;;;;;5.33;4.93;;;;;;;17.52;100.00;97125.09;5075308;28;20299;-67
2023/07/17 02:16:38;;;;;;;5.63;5.13;;;;;;;17.56;100.00;97126.25;5081194;28;20225;-65
2023/07/17 02:19:06;;;;;;;5.37;5.00;;;;;;;17.48;100.00;97124.75;5070206;28;20999;-66
2023/07/17 02:21:34;;;;;;;5.57;5.17;;;;;;;17.52;100.00;97124.28;5078870;28;20256;-68
2023/07/17 02:24:02;;;;;;;5.80;5.30;;;;;;;17.50;100.00;97128.00;5075388;28;20202;-65
2023/07/17 02:26:29;;;;;;;5.80;5.13;;;;;;;17.50;100.00;97129.84;5076853;28;20716;-68
2023/07/17 02:28:57;;;;;;;5.97;4.93;;;;;;;17.48;100.00;97127.44;5075536;28;20681;-64
2023/07/17 02:31:25;;;;;;;5.17;4.77;;;;;;;17.46;100.00;97132.19;5075321;28;20630;-70
2023/07/17 02:33:55;;;;;;;5.33;4.93;;;;;;;17.38;100.00;97132.50;5071143;28;20246;-72
2023/07/17 02:36:22;;;;;;;4.77;4.37;;;;;;;17.49;100.00;97120.19;5077710;28;20217;-64
2023/07/17 02:38:50;;;;;;;5.40;4.90;;;;;;;17.53;100.00;97132.06;5071766;28;20294;-64
2023/07/17 02:41:18;;;;;;;5.40;5.00;;;;;;;17.50;100.00;97124.50;5077095;28;20690;-64
2023/07/17 02:43:46;;;;;;;4.80;4.40;;;;;;;17.53;100.00;97121.34;4980197;28;20203;-66
2023/07/17 02:46:13;;;;;;;5.37;5.00;;;;;;;17.44;100.00;97134.28;5070470;28;20254;-71
2023/07/17 02:48:41;;;;;;;5.40;4.53;;;;;;;17.41;100.00;97153.47;5069895;28;20465;-62
2023/07/17 02:51:10;;;;;;;5.00;4.60;;;;;;;17.32;100.00;97158.34;5073037;28;20238;-65
2023/07/17 02:53:38;;;;;;;4.87;4.47;;;;;;;17.21;100.00;97170.66;5074299;28;20337;-70
2023/07/17 02:56:06;;;;;;;4.80;4.40;;;;;;;17.30;100.00;97173.00;5072059;28;20815;-69
2023/07/17 02:58:33;;;;;;;5.00;4.70;;;;;;;17.41;100.00;97182.13;5070303;28;20942;-69
2023/07/17 03:01:01;;;;;;;4.60;4.30;;;;;;;17.42;100.00;97181.88;5075694;28;20195;-67
2023/07/17 03:03:29;;;;;;;5.93;5.40;;;;;;;17.45;100.00;97194.00;5072677;28;20202;-69
2023/07/17 03:05:57;;;;;;;5.17;4.70;;;;;;;17.46;100.00;97198.31;5068515;28;20229;-65
2023/07/17 03:08:26;;;;;;;5.60;5.20;;;;;;;17.52;100.00;97199.28;5071989;28;20203;-68
2023/07/17 03:10:54;;;;;;;5.83;5.43;;;;;;;17.50;100.00;97197.66;5071907;28;20871;-67
2023/07/17 03:13:22;;;;;;;5.30;4.80;;;;;;;17.46;100.00;97190.28;5027840;28;20234;-70
2023/07/17 03:15:50;;;;;;;5.87;5.20;;;;;;;17.24;100.00;97161.34;5037608;28;20238;-65
2023/07/17 03:18:18;;;;;;;5.20;4.90;;;;;;;17.15;100.00;97168.06;5070177;28;20226;-68
2023/07/17 03:20:45;;;;;;;5.77;5.17;;;;;;;16.98;100.00;97174.03;5067302;28;20296;-65
2023/07/17 03:23:13;;;;;;;6.10;5.60;;;;;;;16.94;100.00;97170.16;5075732;28;20199;-68
2023/07/17 03:25:43;;;;;;;5.53;5.13;;;;;;;17.01;100.00;97172.75;5073654;28;20214;-66
2023/07/17 03:28:11;;;;;;;5.63;5.23;;;;;;;17.04;100.00;97170.47;5073534;28;20256;-68
2023/07/17 03:30:39;;;;;;;5.93;5.30;;;;;;;17.06;100.00;97156.88;5075026;28;20317;-64
2023/07/17 03:33:07;;;;;;;5.83;5.33;;;;;;;17.04;100.00;97157.06;5075709;28;20229;-68
2023/07/17 03:35:35;;;;;;;6.10;5.60;;;;;;;17.05;100.00;97158.72;5033749;28;20237;-66
2023/07/17 03:38:03;;;;;;;5.80;5.40;;;;;;;16.99;100.00;97161.47;5072657;28;20234;-72
2023/07/17 03:40:31;;;;;;;6.07;5.67;;;;;;;17.01;100.00;97156.69;5077494;28;20202;-68
2023/07/17 03:43:00;;;;;;;6.83;6.27;;;;;;;16.89;100.00;97122.66;5042967;28;20900;-70
2023/07/17 03:45:28;;;;;;;7.20;6.70;;;;;;;17.05;100.00;97137.28;5045843;28;20313;-67
2023/07/17 03:47:56;;;;;;;6.50;6.00;;;;;;;17.03;100.00;97144.75;5021213;28;21516;-70
2023/07/17 03:50:24;;;;;;;6.33;5.93;;;;;;;17.05;100.00;97137.28;5023937;28;20202;-70
2023/07/17 03:52:51;;;;;;;6.70;6.27;;;;;;;17.05;100.00;97139.16;5072059;28;20209;-70
2023/07/17 03:55:19;;;;;;;6.47;5.97;;;;;;;17.13;100.00;97138.84;5076163;28;20317;-67
2023/07/17 03:57:47;;;;;;;5.60;5.30;;;;;;;17.18;100.00;97141.66;5079467;28;20596;-67
2023/07/17 04:00:16;;;;;;;6.17;5.77;;;;;;;17.19;100.00;97148.66;5073246;28;20226;-64
2023/07/17 04:02:44;;;;;;;6.13;5.70;;;;;;;16.93;100.00;97129.19;5074338;28;20296;-67
2023/07/17 04:05:12;;;;;;;6.70;6.10;;;;;;;17.10;100.00;97157.22;5071999;28;20868;-65
2023/07/17 04:07:40;;;;;;;6.57;5.80;;;;;;;17.08;100.00;97144.06;5077755;28;20674;-72
2023/07/17 04:10:08;;;;;;;6.73;6.33;;;;;;;17.06;100.00;97156.88;5074257;28;20785;-68
2023/07/17 04:12:36;;;;;;;6.90;6.40;;;;;;;17.06;100.00;97164.91;5080676;28;20197;-67
2023/07/17 04:15:05;;;;;;;6.23;5.83;;;;;;;17.03;100.00;97174.19;5042766;28;20816;-67
2023/07/17 04:17:34;;;;;;;6.00;5.50;;;;;;;17.12;100.00;97172.00;5039074;28;20721;-64
2023/07/17 04:20:02;;;;;;;5.70;5.20;;;;;;;17.13;100.00;97183.53;5038587;28;20222;-68
2023/07/17 04:22:30;;;;;;;5.67;5.23;;;;;;;17.38;100.00;97190.63;5013859;28;20697;-65
2023/07/17 04:24:58;;;;;;;5.30;4.90;;;;;;;17.30;100.00;97205.97;5075574;28;20193;-69
2023/07/17 04:27:25;;;;;;;4.90;4.60;;;;;;;17.46;100.00;97196.47;5071674;28;20316;-65
2023/07/17 04:29:53;;;;;;;5.20;4.80;;;;;;;17.57;100.00;97194.06;5073794;28;20206;-71
2023/07/17 04:32:20;;;;;;;5.33;5.00;;;;;;;17.67;100.00;97188.16;5074732;28;20298;-63
2023/07/17 04:34:49;;;;;;;5.63;5.23;;;;;;;17.71;100.00;97186.63;5073580;28;20260;-71
2023/07/17 04:37:18;;;;;;;6.17;5.20;;;;;;;17.82;100.00;97183.16;5005669;28;20876;-69
2023/07/17 04:39:46;;;;;;;5.67;5.17;;;;;;;17.81;100.00;97186.06;5076596;28;20259;-68
2023/07/17 04:42:14;;;;;;;6.30;5.83;;;;;;;17.94;100.00;97192.00;5069402;28;20202;-67
2023/07/17 04:44:43;;;;;;;5.30;4.90;;;;;;;17.95;100.00;97198.22;5075980;28;20310;-69
2023/07/17 04:47:11;;;;;;;6.50;6.00;;;;;;;18.21;100.00;97207.69;5065958;28;20307;-62
2023/07/17 04:49:39;;;;;;;5.87;5.47;;;;;;;18.21;100.00;97196.97;4991572;28;20210;-63
2023/07/17 04:52:08;;;;;;;6.60;5.53;;;;;;;18.19;100.00;97182.97;5074601;28;20227;-64
2023/07/17 04:54:35;;;;;;;5.77;5.37;;;;;;;18.21;100.00;97190.81;5073184;28;20218;-65
2023/07/17 04:57:04;;;;;;;5.77;5.37;;;;;;;18.23;100.00;97194.88;5075882;28;20270;-66
2023/07/17 04:59:31;;;;;;;6.07;5.67;;;;;;;18.50;100.00;97185.53;5073670;28;20641;-66
2023/07/17 05:01:59;;;;;;;6.10;5.70;;;;;;;18.59;100.00;97191.34;5076350;28;20198;-65
2023/07/17 05:04:26;;;;;;;6.17;5.67;;;;;;;18.63;100.00;97187.97;5019504;28;20202;-65
2023/07/17 05:06:56;;;;;;;5.77;5.13;;;;;;;18.70;100.00;97193.19;5074115;28;20226;-64
2023/07/17 05:09:25;;;;;;;6.10;5.60;;;;;;;18.91;100.00;97177.53;5077571;28;20285;-66
2023/07/17 05:11:52;;;;;;;8.07;6.07;;;;;;;19.02;100.00;97194.69;5077030;28;20301;-65
2023/07/17 05:14:20;;;;;;;6.57;4.97;;;;;;;18.80;100.00;97214.91;5067535;28;20647;-65
2023/07/17 05:16:47;;;;;;;6.70;5.30;;;;;;;18.80;100.00;97214.91;5075881;28;20313;-67
2023/07/17 05:19:15;;;;;;;4.83;4.50;;;;;;;18.73;100.00;97219.56;5001646;28;20229;-64
2023/07/17 05:21:43;;;;;;;6.73;4.57;;;;;;;18.63;100.00;97236.28;5076712;28;20684;-63
2023/07/17 05:24:10;;;;;;;4.90;4.50;;;;;;;18.55;100.00;97244.66;5074697;28;20203;-65
2023/07/17 05:26:39;;;;;;;6.30;5.03;;;;;;;18.16;100.00;97221.00;5076817;28;20596;-65
2023/07/17 05:29:07;;;;;;;5.20;4.70;;;;;;;18.37;100.00;97234.84;5073437;28;20289;-64
2023/07/17 05:31:35;;;;;;;5.07;4.60;;;;;;;18.51;100.00;97243.50;5009734;28;20298;-63
2023/07/17 05:34:03;;;;;;;4.27;3.97;;;;;;;18.56;100.00;97249.00;5076720;28;20206;-64
2023/07/17 05:36:30;;;;;;;5.40;5.00;;;;;;;18.55;100.00;97262.63;5070636;28;20240;-66
2023/07/17 05:38:58;;;;;;;5.10;4.70;;;;;;;18.50;100.00;97264.16;5077422;28;20293;-65
2023/07/17 05:41:26;;;;;;;5.30;4.53;;;;;;;18.54;100.00;97263.69;5074379;28;20272;-63
2023/07/17 05:43:55;;;;;;;5.50;5.00;;;;;;;18.49;100.00;97259.00;5078288;28;20955;-64
2023/07/17 05:46:22;;;;;;;5.57;4.10;;;;;;;18.45;100.00;97258.66;5070169;28;20214;-63
2023/07/17 05:48:50;;;;;;;5.53;4.43;;;;;;;18.40;100.00;97263.09;5080516;28;20271;-65
2023/07/17 05:51:17;;;;;;;6.17;4.80;;;;;;;18.27;100.00;97269.50;4953244;28;21281;-63
2023/07/17 05:53:46;;;;;;;4.70;4.30;;;;;;;18.38;100.00;97271.38;5077860;28;20202;-66
2023/07/17 05:56:15;;;;;;;4.93;4.63;;;;;;;18.42;100.00;97269.03;5068440;28;20298;-65
2023/07/17 05:58:43;;;;;;;4.57;4.27;;;;;;;18.39;100.00;97262.28;5078465;28;20212;-64
2023/07/17 06:01:12;;;;;;;4.80;4.40;;;;;;;18.42;100.00;97256.47;5074955;28;20483;-65
2023/07/17 06:03:40;;;;;;;4.83;4.53;;;;;;;18.61;100.00;97259.84;5080157;28;20838;-65
2023/07/17 06:06:07;;;;;;;4.67;4.27;;;;;;;18.80;100.00;97268.56;5068924;28;20214;-66
2023/07/17 06:08:36;;;;;;;5.43;5.03;;;;;;;19.07;100.00;97267.28;5074934;28;20632;-64
2023/07/17 06:11:04;;;;;;;5.03;4.60;;;;;;;19.27;100.00;97269.56;5075351;28;20190;-68
2023/07/17 06:13:32;;;;;;;5.87;4.93;;;;;;;19.69;100.00;97264.97;5082991;28;20209;-63
2023/07/17 06:16:00;;;;;;;9.27;4.80;;;;;;;19.92;100.00;97267.59;5079303;28;20290;-65
2023/07/17 06:18:29;;;;;;;3.97;3.67;;;;;;;20.07;100.00;97255.44;5079361;28;20204;-64
2023/07/17 06:20:57;;;;;;;4.60;3.80;;;;;;;20.45;100.00;97256.56;5018319;28;20211;-65
2023/07/17 06:23:25;;;;;;;5.57;4.90;;;;;;;20.48;100.00;97253.38;4996636;28;20236;-65
2023/07/17 06:25:53;;;;;;;4.10;3.90;;;;;;;20.84;100.00;97265.75;5079912;28;20214;-65
2023/07/17 06:28:20;;;;;;;4.60;4.20;;;;;;;20.44;100.00;97276.47;5073156;28;20296;-65
2023/07/17 06:30:48;;;;;;;5.43;4.23;;;;;;;20.19;100.00;97279.56;5085214;28;20908;-67
2023/07/17 06:33:16;;;;;;;4.40;4.10;;;;;;;20.36;100.00;97275.00;5076981;28;20619;-64
2023/07/17 06:35:45;;;;;;;5.07;4.30;;;;;;;20.54;100.00;97276.63;5075708;28;20305;-64
2023/07/17 06:38:13;;;;;;;6.03;5.40;;;;;;;20.31;100.00;97279.50;5071684;28;20289;-63
2023/07/17 06:40:41;;;;;;;5.83;5.23;;;;;;;20.45;100.00;97279.97;5079743;28;20202;-64
2023/07/17 06:43:09;;;;;;;5.47;5.00;;;;;;;20.41;100.00;97274.28;5068320;28;20195;-64
2023/07/17 06:45:37;;;;;;;4.63;4.33;;;;;;;20.37;100.00;97273.13;5078060;28;20333;-64
2023/07/17 06:48:05;;;;;;;4.50;4.10;;;;;;;20.35;100.00;97270.69;5077819;28;20613;-66
2023/07/17 06:50:33;;;;;;;6.90;3.60;;;;;;;20.52;100.00;97277.94;5077258;28;20199;-65
2023/07/17 06:53:02;;;;;;;4.00;3.80;;;;;;;20.56;100.00;97278.25;4981960;28;20210;-65
2023/07/17 06:55:29;;;;;;;5.30;4.07;;;;;;;20.31;100.00;97285.69;5081066;28;20322;-65
2023/07/17 06:57:57;;;;;;;5.33;4.40;;;;;;;20.69;100.00;97286.00;5075269;28;20203;-65
2023/07/17 07:00:25;;;;;;;4.07;3.67;;;;;;;20.96;100.00;97291.53;5080875;28;20325;-67
2023/07/17 07:02:54;;;;;;;5.57;3.80;;;;;;;20.98;100.00;97290.47;5078703;28;20202;-64
2023/07/17 07:05:21;;;;;;;5.53;3.33;;;;;;;21.30;100.00;97297.88;5070884;28;20313;-65
2023/07/17 07:07:49;;;;;;;4.60;4.13;;;;;;;21.57;100.00;97299.78;5074023;28;20207;-68
2023/07/17 07:10:18;;;;;;;4.30;3.90;;;;;;;21.39;100.00;97302.56;5070247;28;20210;-68
2023/07/17 07:12:46;;;;;;;3.90;3.60;;;;;;;21.29;100.00;97301.63;5073167;28;20301;-66
2023/07/17 07:15:14;;;;;;;4.37;4.07;;;;;;;21.26;100.00;97292.16;5075664;28;20317;-65
2023/07/17 07:17:41;;;;;;;5.03;3.90;;;;;;;21.03;100.00;97299.44;5074639;28;20673;-67
2023/07/17 07:20:10;;;;;;;6.60;3.63;;;;;;;21.17;100.00;97291.78;5071672;28;20605;-65
2023/07/17 07:22:38;;;;;;;4.23;3.73;;;;;;;21.08;100.00;97301.38;5075605;28;20898;-67
2023/07/17 07:25:07;;;;;;;3.97;3.67;;;;;;;21.40;100.00;97304.22;5077130;28;20222;-65
2023/07/17 07:27:36;;;;;;;4.63;4.20;;;;;;;21.67;100.00;97303.44;4983689;28;20211;-65
2023/07/17 07:30:04;;;;;;;3.77;3.47;;;;;;;21.92;100.00;97299.41;5075414;28;20202;-64
2023/07/17 07:32:32;;;;;;;3.57;3.37;;;;;;;22.24;100.00;97304.00;5071102;28;20231;-66
2023/07/17 07:35:00;;;;;;;4.40;4.10;;;;;;;22.20;100.00;97311.00;5073199;28;20187;-64
2023/07/17 07:37:27;;;;;;;4.33;3.93;;;;;;;22.89;100.00;97322.06;5070434;28;20915;-65
2023/07/17 07:39:55;;;;;;;3.53;3.23;;;;;;;22.96;100.00;97325.34;5074844;28;20202;-64
2023/07/17 07:42:23;;;;;;;4.30;3.70;;;;;;;22.89;100.00;97326.63;5070763;28;20203;-66
2023/07/17 07:44:52;;;;;;;3.20;2.97;;;;;;;23.13;100.00;97335.16;5071651;28;20202;-65
2023/07/17 07:47:19;;;;;;;3.90;3.20;;;;;;;22.51;100.00;97329.34;5072747;28;20469;-65
2023/07/17 07:49:47;;;;;;;4.77;4.43;;;;;;;22.32;100.00;97323.50;5074600;28;20693;-67
2023/07/17 07:52:15;;;;;;;3.37;3.13;;;;;;;22.76;100.00;97326.03;5069468;28;20798;-68
2023/07/17 07:54:44;;;;;;;4.97;4.23;;;;;;;23.32;100.00;97327.47;5077808;28;20213;-66
2023/07/17 07:57:12;;;;;;;6.40;3.57;;;;;;;23.33;99.33;97323.69;4984271;28;21408;-67
2023/07/17 07:59:39;;;;;;;4.07;3.63;;;;;;;23.05;100.00;97330.25;5076936;28;20198;-66
2023/07/17 08:02:08;;;;;;;3.53;3.27;;;;;;;23.18;100.00;97327.09;5073734;28;20293;-64
2023/07/17 08:04:36;;;;;;;4.20;3.80;;;;;;;22.88;100.00;97322.31;5074051;28;20203;-68
2023/07/17 08:07:07;;;;;;;4.30;3.63;;;;;;;22.70;100.00;97322.47;5073844;28;20224;-65
2023/07/17 08:09:34;;;;;;;4.00;3.70;;;;;;;22.66;99.11;97317.84;5077517;28;20234;-65
2023/07/17 08:12:02;;;;;;;4.77;4.33;;;;;;;22.55;100.00;97314.25;5074101;28;21051;-64
2023/07/17 08:14:29;;;;;;;4.20;3.90;;;;;;;22.59;100.00;97322.66;5070536;28;20294;-67
2023/07/17 08:16:57;;;;;;;3.77;3.43;;;;;;;22.80;100.00;97329.81;5071686;28;20222;-67
2023/07/17 08:19:26;;;;;;;5.93;4.03;;;;;;;22.84;100.00;97330.13;5072513;28;20259;-65
2023/07/17 08:21:54;;;;;;;4.63;4.23;;;;;;;23.06;100.00;97330.00;5073536;28;20267;-67
2023/07/17 08:24:21;;;;;;;4.33;3.93;;;;;;;22.79;100.00;97330.91;5078729;28;20294;-64
2023/07/17 08:26:49;;;;;;;3.57;3.27;;;;;;;22.61;93.43;97323.22;5072001;28;20306;-68
2023/07/17 08:29:17;;;;;;;7.60;4.27;;;;;;;22.77;93.29;97330.34;5074682;28;20638;-65
2023/07/17 08:31:46;;;;;;;8.47;4.07;;;;;;;22.72;90.87;97326.78;5033508;28;20211;-66
2023/07/17 08:34:15;;;;;;;4.97;3.67;;;;;;;22.70;83.78;97318.97;4987615;28;22231;-66
2023/07/17 08:36:44;;;;;;;4.37;3.70;;;;;;;23.15;90.81;97322.22;5074007;28;20291;-64
2023/07/17 08:39:12;;;;;;;8.23;4.27;;;;;;;22.86;88.20;97321.75;5069661;28;20833;-64
2023/07/17 08:41:41;;;;;;;3.93;3.63;;;;;;;23.08;87.07;97325.13;5072890;28;20198;-66
2023/07/17 08:44:10;;;;;;;4.03;3.60;;;;;;;23.10;86.63;97314.06;5067120;28;20209;-69
2023/07/17 08:46:38;;;;;;;4.73;4.00;;;;;;;23.31;88.54;97320.44;5076189;28;20707;-65
2023/07/17 08:49:06;;;;;;;5.03;3.60;;;;;;;23.24;84.15;97323.34;5018591;28;20202;-66
2023/07/17 08:51:34;;;;;;;4.47;4.00;;;;;;;23.01;82.14;97323.72;5071848;28;20223;-66
2023/07/17 08:54:03;;;;;;;4.53;3.70;;;;;;;23.10;83.84;97328.38;5068802;28;20298;-65
2023/07/17 08:56:51;;;;;;;4.17;3.50;;;;;;;23.14;88.43;97307.06;5073165;28;20368;-65
2023/07/17 08:59:20;;;;;;;4.27;3.87;;;;;;;23.40;80.59;97324.25;5068725;28;20296;-68
2023/07/17 09:01:49;;;;;;;3.87;3.53;;;;;;;23.59;75.27;97325.66;5073719;28;20202;-66
2023/07/17 09:04:17;;;;;;;5.17;4.23;;;;;;;23.85;79.02;97329.25;4966550;28;20218;-66
2023/07/17 09:06:45;;;;;;;3.87;3.57;;;;;;;23.52;73.42;97331.31;5080504;28;20245;-66
2023/07/17 09:09:15;;;;;;;3.93;3.63;;;;;;;23.49;74.75;97326.44;5071922;28;20248;-65
2023/07/17 09:11:43;;;;;;;3.93;3.63;;;;;;;23.68;80.51;97329.47;5075293;28;20204;-66
2023/07/17 09:14:10;;;;;;;3.93;3.50;;;;;;;23.30;72.87;97324.22;5072669;28;20255;-65
2023/07/17 09:16:39;;;;;;;4.33;3.93;;;;;;;23.22;72.38;97332.75;5076018;28;20230;-65
2023/07/17 09:19:07;;;;;;;4.80;4.10;;;;;;;23.50;70.40;97330.75;5019701;28;20233;-64
2023/07/17 09:21:34;;;;;;;3.67;3.37;;;;;;;23.58;73.96;97329.44;5074200;28;20206;-64
2023/07/17 09:24:02;;;;;;;6.63;3.40;;;;;;;23.73;70.90;97331.41;5074754;28;20758;-66
2023/07/17 09:26:31;;;;;;;4.93;3.67;;;;;;;23.68;77.20;97300.56;5076102;28;20304;-67
2023/07/17 09:28:59;;;;;;;4.53;3.57;;;;;;;23.90;74.08;97321.16;5071102;28;20885;-67
2023/07/17 09:31:28;;;;;;;3.77;3.47;;;;;;;24.52;71.23;97317.72;5078102;28;20252;-66
2023/07/17 09:33:57;;;;;;;3.53;3.23;;;;;;;25.14;71.61;97326.56;5071954;28;20828;-67
2023/07/17 09:36:25;;;;;;;5.83;3.73;;;;;;;24.88;64.02;97327.75;5074830;28;20714;-68
2023/07/17 09:38:54;;;;;;;4.00;3.60;;;;;;;24.39;68.15;97317.19;4979108;28;21520;-64
2023/07/17 09:41:23;;;;;;;5.23;3.50;;;;;;;23.91;70.29;97321.97;5081393;28;20206;-64
2023/07/17 09:43:54;;;;;;;4.53;3.77;;;;;;;23.39;76.03;97322.63;5076519;28;20210;-64
2023/07/17 09:46:22;;;;;;;3.57;3.33;;;;;;;23.65;74.09;97320.00;5082390;28;20314;-65
2023/07/17 09:48:50;;;;;;;5.20;3.77;;;;;;;23.82;68.29;97321.69;5076436;28;20219;-65
2023/07/17 09:51:19;;;;;;;3.87;3.40;;;;;;;23.90;68.46;97315.72;5079351;28;20265;-65
2023/07/17 09:53:48;;;;;;;4.60;3.50;;;;;;;24.28;69.71;97307.44;5024047;28;20224;-65
2023/07/17 09:56:18;;;;;;;4.27;3.50;;;;;;;24.57;65.73;97304.97;5082376;28;20720;-65
2023/07/17 09:58:47;;;;;;;4.53;3.80;;;;;;;24.87;65.39;97307.94;5072472;28;20203;-63
2023/07/17 10:01:18;;;;;;;4.07;3.27;;;;;;;24.64;64.65;97317.44;5082162;28;20198;-65
2023/07/17 10:03:48;;;;;;;3.97;3.70;;;;;;;24.32;64.35;97313.94;5076630;28;20206;-62
2023/07/17 10:06:17;;;;;;;5.60;3.90;;;;;;;24.11;68.82;97307.69;5080279;28;20316;-64
2023/07/17 10:08:46;;;;;;;6.07;3.97;;;;;;;24.17;65.92;97314.72;5072217;28;20427;-64
2023/07/17 10:11:15;;;;;;;4.07;3.70;;;;;;;23.98;66.96;97298.16;5080463;28;20206;-62
2023/07/17 10:13:45;;;;;;;5.13;3.80;;;;;;;24.21;68.56;97304.16;4980391;28;21291;-63
2023/07/17 10:16:15;;;;;;;3.70;3.40;;;;;;;24.92;72.79;97309.84;5078133;28;20223;-65
2023/07/17 10:18:52;;;;;;;6.90;3.77;;;;;;;25.19;66.82;97300.53;5074637;28;20351;-64
2023/07/17 10:21:19;;;;;;;5.33;3.70;;;;;;;25.72;68.02;97294.63;5083018;28;20202;-63
2023/07/17 10:23:48;;;;;;;3.73;3.40;;;;;;;25.75;62.86;97301.41;5073396;28;20278;-65
2023/07/17 10:26:19;;;;;;;3.80;3.43;;;;;;;25.23;62.37;97282.66;5081266;28;20218;-64
2023/07/17 10:28:49;;;;;;;3.77;3.47;;;;;;;25.17;63.93;97300.81;5018905;28;21244;-64
2023/07/17 10:31:19;;;;;;;4.00;3.70;;;;;;;25.00;62.48;97301.16;5083043;28;20199;-62
2023/07/17 10:33:49;;;;;;;4.37;3.80;;;;;;;24.76;66.35;97301.72;5073229;28;20199;-62
2023/07/17 10:36:18;;;;;;;3.40;3.13;;;;;;;25.12;65.69;97298.94;5079295;28;20309;-63
2023/07/17 10:38:50;;;;;;;4.63;4.00;;;;;;;25.39;65.11;97300.47;5072414;28;20800;-64
2023/07/17 10:41:26;;;;;;;4.27;3.90;;;;;;;25.02;61.48;97295.47;5078526;28;21082;-63
2023/07/17 10:43:55;;;;;;;6.20;4.20;;;;;;;24.86;64.81;97298.19;4977247;28;20340;-62
2023/07/17 10:46:42;;;;;;;4.43;3.53;;;;;;;24.98;60.81;97292.47;5074306;28;20215;-63
2023/07/17 10:49:11;;;;;;;5.50;4.40;;;;;;;25.33;68.72;97281.78;5075549;28;20293;-63
2023/07/17 10:51:44;;;;;;;4.10;3.70;;;;;;;25.61;62.55;97283.06;5076894;28;20633;-65
2023/07/17 10:54:12;;;;;;;4.47;3.40;;;;;;;25.81;69.54;97284.00;5075641;28;20222;-63
2023/07/17 10:56:40;;;;;;;3.73;3.23;;;;;;;25.88;61.84;97275.56;5076610;28;20762;-62
2023/07/17 10:59:08;;;;;;;3.80;3.40;;;;;;;25.94;58.68;97275.22;5022550;28;20300;-63
2023/07/17 11:01:36;;;;;;;4.50;3.60;;;;;;;25.97;59.66;97260.28;5075291;28;20761;-62
2023/07/17 11:04:07;;;;;;;3.40;3.17;;;;;;;25.96;59.81;97239.66;5075485;28;20702;-63
2023/07/17 11:06:34;;;;;;;4.30;3.87;;;;;;;25.96;58.94;97258.66;5078706;28;20713;-63
2023/07/17 11:09:04;;;;;;;4.13;3.73;;;;;;;25.84;59.42;97265.28;5074955;28;20481;-63
2023/07/17 11:11:32;;;;;;;3.33;3.13;;;;;;;26.46;59.25;97265.88;5078421;28;20206;-62
2023/07/17 11:14:00;;;;;;;3.67;3.37;;;;;;;27.34;56.91;97267.72;5077793;28;20639;-65
2023/07/17 11:16:28;;;;;;;7.53;3.90;;;;;;;27.70;55.30;97265.34;5080953;28;20861;-64
2023/07/17 11:18:56;;;;;;;3.70;3.20;;;;;;;27.78;52.32;97257.59;4972091;28;20605;-65
2023/07/17 11:21:26;;;;;;;4.03;3.47;;;;;;;27.72;52.73;97260.41;5076146;28;20202;-65
2023/07/17 11:23:55;;;;;;;3.60;3.30;;;;;;;27.69;51.37;97247.38;5073909;28;20210;-64
2023/07/17 11:26:25;;;;;;;5.73;3.80;;;;;;;27.13;51.82;97257.06;5078021;28;20222;-65
2023/07/17 11:28:54;;;;;;;3.53;3.20;;;;;;;27.04;52.47;97253.38;5072440;28;20204;-64
2023/07/17 11:31:24;;;;;;;5.37;3.67;;;;;;;26.58;55.49;97242.69;5018305;28;20397;-65